Anaktuvuk Pass, AK

9:17 AM AKDT on April 24, 2018 (GMT -0800)
Anaktuvuk Pass

Weather History for PAKP - September, 2012

Change the Weather History Date:

Sunday, September 2, 2012

  Actual Average Record
Temperature  
Mean Temperature 38 °F -  
Max Temperature 42 °F 45 °F 60 °F (2008)
Min Temperature 33 °F 31 °F 19 °F (2013)
Degree Days  
Heating Degree Days 28    
Moisture  
Dew Point 30 °F    
Average Humidity 76    
Maximum Humidity 87    
Minimum Humidity 61    
Precipitation  
Precipitation 0.00 in - - ()
Sea Level Pressure  
Sea Level Pressure 29.61 in    
Wind  
Wind Speed 11 mph (NE)    
Max Wind Speed 15 mph    
Max Gust Speed 21 mph    
Visibility 10 miles    
Events      
Averages and records for this station are not official NWS values.
T = Trace of Precipitation, MM = Missing Value Source: NWS Daily Summary

Daily Weather History Graph

Daily Weather History Graph

Search for Another Location

Airport or City:

Astronomy

Sep. 02, 2012 Rise Set
Actual Time 6:38 AM AKDT 9:31 PM AKDT
Civil Twilight 5:34 AM AKDT 10:35 PM AKDT
Nautical Twilight 3:50 AM AKDT 12:14 AM AKDT
Astronomical Twilight Sun does not set Sun does not set
Moon 8:32 PM AKDT (9/2) 10:38 AM AKDT (9/2)
Length of Visible Light 17h 01m
Length of Day
14h 52m
Waning Gibbous, 95% of the Moon is Illuminated
Sep 2
Waning Gibbous
Sep 8
Last Quarter
Sep 15
New
Sep 22
First Quarter
Sep 29
Full

Hourly Weather History & Observations

Time (AKDT) Temp. Windchill Dew Point Humidity Pressure Visibility Wind Dir Wind Speed Gust Speed Precip Events Conditions
12:16 AM 35.6 °F 28.6 °F 30.2 °F 81% 29.60 in 10.0 mi NE 9.2 mph - N/A   Overcast
12:36 AM 35.6 °F 27.5 °F 30.2 °F 81% 29.60 in 10.0 mi ENE 11.5 mph 17.3 mph N/A   Overcast
12:56 AM 35.6 °F 27.1 °F 30.2 °F 81% 29.60 in 8.0 mi ENE 12.7 mph - N/A   Overcast
1:16 AM 35.6 °F 28.6 °F 30.2 °F 81% 29.60 in 10.0 mi ENE 9.2 mph - N/A   Overcast
1:36 AM 35.6 °F 28.0 °F 30.2 °F 81% 29.60 in 10.0 mi ENE 10.4 mph - N/A   Overcast
1:56 AM 35.6 °F 27.5 °F 30.2 °F 81% 29.60 in 10.0 mi ENE 11.5 mph - N/A   Overcast
2:16 AM 35.6 °F 28.0 °F 30.2 °F 81% 29.60 in 10.0 mi ENE 10.4 mph 17.3 mph N/A   Overcast
2:36 AM 35.6 °F 28.6 °F 30.2 °F 81% 29.61 in 10.0 mi NE 9.2 mph - N/A   Overcast
2:56 AM 35.6 °F 27.5 °F 30.2 °F 81% 29.61 in 10.0 mi ENE 11.5 mph - N/A   Overcast
3:16 AM 35.6 °F 28.0 °F 30.2 °F 81% 29.61 in 10.0 mi NE 10.4 mph - N/A   Overcast
3:36 AM 37.4 °F 30.3 °F 30.2 °F 75% 29.61 in 10.0 mi NE 10.4 mph - N/A   Overcast
3:56 AM 37.4 °F 28.9 °F 30.2 °F 75% 29.61 in 10.0 mi NE 13.8 mph 18.4 mph N/A   Overcast
4:16 AM 35.6 °F 27.1 °F 30.2 °F 81% 29.61 in 10.0 mi NE 12.7 mph - N/A   Overcast
4:36 AM 35.6 °F 27.1 °F 30.2 °F 81% 29.61 in 10.0 mi NE 12.7 mph - N/A   Overcast
4:56 AM 35.6 °F 27.1 °F 30.2 °F 81% 29.61 in 10.0 mi NE 12.7 mph - N/A   Overcast
5:16 AM 35.6 °F 27.1 °F 30.2 °F 81% 29.61 in 10.0 mi NE 12.7 mph 20.7 mph N/A   Overcast
5:36 AM 35.6 °F 26.6 °F 28.4 °F 75% 29.61 in 10.0 mi NE 13.8 mph - N/A   Overcast
5:56 AM 33.8 °F 25.8 °F 28.4 °F 81% 29.61 in 10.0 mi NE 10.4 mph 17.3 mph N/A   Overcast
6:16 AM 33.8 °F 25.8 °F 28.4 °F 81% 29.62 in 10.0 mi ENE 10.4 mph - N/A   Overcast
6:36 AM 33.8 °F 24.3 °F 28.4 °F 81% 29.62 in 9.0 mi ENE 13.8 mph - N/A   Overcast
6:56 AM 33.8 °F 25.3 °F 28.4 °F 81% 29.62 in 5.0 mi ENE 11.5 mph - N/A   Overcast
7:16 AM 33.8 °F 25.8 °F 28.4 °F 81% 29.62 in 5.0 mi ENE 10.4 mph - N/A   Overcast
7:36 AM 33.8 °F 26.4 °F 28.4 °F 81% 29.62 in 4.0 mi NE 9.2 mph - N/A   Overcast
8:16 AM 33.8 °F 25.3 °F 28.4 °F 81% 29.62 in 4.0 mi NE 11.5 mph - N/A   Overcast
8:36 AM 33.8 °F 25.8 °F 28.4 °F 81% 29.62 in 7.0 mi NE 10.4 mph - N/A   Overcast
8:56 AM 33.8 °F 25.8 °F 28.4 °F 81% 29.62 in 8.0 mi NE 10.4 mph - N/A   Overcast
9:16 AM 33.8 °F 25.8 °F 30.2 °F 87% 29.62 in 10.0 mi NE 10.4 mph - N/A   Overcast
9:36 AM 33.8 °F 25.8 °F 30.2 °F 87% 29.61 in 10.0 mi NE 10.4 mph - N/A   Overcast
9:56 AM 35.6 °F 27.5 °F 30.2 °F 81% 29.62 in 10.0 mi NE 11.5 mph - N/A   Overcast
10:16 AM 35.6 °F 28.6 °F 30.2 °F 81% 29.62 in 10.0 mi NE 9.2 mph - N/A   Overcast
10:36 AM 35.6 °F 28.0 °F 30.2 °F 81% 29.61 in 10.0 mi ENE 10.4 mph 16.1 mph N/A   Overcast
10:56 AM 35.6 °F 28.0 °F 30.2 °F 81% 29.62 in 10.0 mi ENE 10.4 mph - N/A   Overcast
11:16 AM 35.6 °F 27.5 °F 30.2 °F 81% 29.62 in 10.0 mi ENE 11.5 mph - N/A   Overcast
11:36 AM 35.6 °F 27.5 °F 30.2 °F 81% 29.62 in 10.0 mi ENE 11.5 mph - N/A   Overcast
11:56 AM 37.4 °F 29.3 °F 30.2 °F 75% 29.62 in 10.0 mi ENE 12.7 mph - N/A   Overcast
12:16 PM 37.4 °F 28.5 °F 30.2 °F 75% 29.62 in 10.0 mi ENE 15.0 mph - N/A   Overcast
12:36 PM 37.4 °F 29.8 °F 30.2 °F 75% 29.62 in 10.0 mi ENE 11.5 mph - N/A   Overcast
12:56 PM 37.4 °F 29.8 °F 30.2 °F 75% 29.62 in 10.0 mi NE 11.5 mph - N/A   Overcast
1:16 PM 39.2 °F 31.6 °F 30.2 °F 70% 29.62 in 10.0 mi ENE 12.7 mph 17.3 mph N/A   Overcast
1:36 PM 39.2 °F 31.2 °F 30.2 °F 70% 29.63 in 10.0 mi NE 13.8 mph - N/A   Overcast
1:56 PM 39.2 °F 32.0 °F 30.2 °F 70% 29.63 in 10.0 mi ENE 11.5 mph - N/A   Overcast
2:16 PM 39.2 °F 32.5 °F 30.2 °F 70% 29.63 in 10.0 mi NE 10.4 mph - N/A   Overcast
2:36 PM 39.2 °F 31.6 °F 32.0 °F 75% 29.63 in 10.0 mi ENE 12.7 mph - N/A   Overcast
2:56 PM 39.2 °F 32.0 °F 32.0 °F 75% 29.63 in 10.0 mi NE 11.5 mph - N/A   Overcast
3:16 PM 41.0 °F 34.3 °F 30.2 °F 65% 29.63 in 10.0 mi NE 11.5 mph - N/A   Overcast
3:36 PM 41.0 °F 34.3 °F 30.2 °F 65% 29.63 in 10.0 mi NE 11.5 mph - N/A   Overcast
3:56 PM 41.0 °F 33.9 °F 30.2 °F 65% 29.63 in 10.0 mi NE 12.7 mph 17.3 mph N/A   Overcast
4:16 PM 42.8 °F 37.0 °F 30.2 °F 61% 29.63 in 10.0 mi ENE 10.4 mph - N/A   Overcast
4:36 PM 42.8 °F 37.0 °F 30.2 °F 61% 29.62 in 10.0 mi NE 10.4 mph - N/A   Overcast
4:56 PM 42.8 °F 36.6 °F 30.2 °F 61% 29.62 in 10.0 mi NE 11.5 mph - N/A   Overcast
5:16 PM 42.8 °F 37.0 °F 30.2 °F 61% 29.62 in 10.0 mi NE 10.4 mph - N/A   Overcast
5:36 PM 42.8 °F 38.0 °F 30.2 °F 61% 29.62 in 10.0 mi NE 8.1 mph - N/A   Mostly Cloudy
5:56 PM 42.8 °F 36.6 °F 30.2 °F 61% 29.62 in 10.0 mi NE 11.5 mph - N/A   Mostly Cloudy
6:16 PM 42.8 °F 37.0 °F 30.2 °F 61% 29.62 in 10.0 mi NE 10.4 mph - N/A   Overcast
6:36 PM 41.0 °F 35.8 °F 30.2 °F 65% 29.62 in 10.0 mi NE 8.1 mph - N/A   Overcast
6:56 PM 41.0 °F 34.7 °F 32.0 °F 70% 29.61 in 10.0 mi NE 10.4 mph - N/A   Overcast
7:16 PM 39.2 °F 32.5 °F 32.0 °F 75% 29.61 in 10.0 mi ENE 10.4 mph - N/A   Overcast
7:36 PM 39.2 °F 32.5 °F 32.0 °F 75% 29.61 in 10.0 mi NE 10.4 mph - N/A   Overcast
7:56 PM 39.2 °F 33.6 °F 32.0 °F 75% 29.61 in 10.0 mi NE 8.1 mph - N/A   Overcast
8:16 PM 39.2 °F 32.0 °F 32.0 °F 75% 29.61 in 10.0 mi NE 11.5 mph - N/A   Overcast
8:36 PM 39.2 °F 32.5 °F 30.2 °F 70% 29.61 in 10.0 mi ENE 10.4 mph - N/A   Overcast
8:56 PM 37.4 °F 29.8 °F 30.2 °F 75% 29.60 in 10.0 mi ENE 11.5 mph - N/A   Overcast
9:16 PM 37.4 °F 29.3 °F 30.2 °F 75% 29.61 in 10.0 mi ENE 12.7 mph - N/A   Overcast
9:36 PM 37.4 °F 30.8 °F 30.2 °F 75% 29.60 in 10.0 mi NE 9.2 mph - N/A   Overcast
9:56 PM 37.4 °F 30.8 °F 30.2 °F 75% 29.60 in 10.0 mi NE 9.2 mph - N/A   Overcast
10:16 PM 35.6 °F 28.0 °F 30.2 °F 81% 29.60 in 10.0 mi NE 10.4 mph - N/A   Overcast
10:36 PM 35.6 °F 28.6 °F 30.2 °F 81% 29.60 in 10.0 mi NE 9.2 mph - N/A   Overcast
10:56 PM 35.6 °F 29.2 °F 30.2 °F 81% 29.60 in 10.0 mi NE 8.1 mph - N/A   Overcast
11:16 PM 35.6 °F 28.6 °F 30.2 °F 81% 29.60 in 10.0 mi NE 9.2 mph - N/A   Overcast
11:36 PM 35.6 °F 29.2 °F 30.2 °F 81% 29.60 in 10.0 mi NE 8.1 mph - N/A   Overcast
11:56 PM 35.6 °F 28.6 °F 30.2 °F 81% 29.60 in 10.0 mi NE 9.2 mph - N/A   Overcast